createdAt,value
2022-12-25T00:01:17.512Z,5.82
2022-12-25T00:03:45.090Z,5.90
2022-12-25T00:06:12.403Z,7.15
2022-12-25T00:08:40.415Z,7.90
2022-12-25T00:11:14.456Z,9.20
2022-12-25T00:13:41.723Z,6.00
2022-12-25T00:16:20.365Z,7.88
2022-12-25T00:18:51.391Z,10.40
2022-12-25T00:21:18.992Z,6.68
2022-12-25T00:23:45.781Z,9.00
2022-12-25T00:26:15.827Z,13.60
2022-12-25T00:28:42.795Z,7.32
2022-12-25T00:31:12.639Z,8.88
2022-12-25T00:33:41.694Z,6.90
2022-12-25T00:36:10.177Z,12.90
2022-12-25T00:38:39.197Z,8.95
2022-12-25T00:41:14.470Z,6.78
2022-12-25T00:43:42.311Z,7.93
2022-12-25T00:46:10.412Z,13.25
2022-12-25T00:48:37.935Z,9.25
2022-12-25T00:51:07.798Z,6.18
2022-12-25T00:53:34.799Z,7.85
2022-12-25T00:56:05.263Z,5.80
2022-12-25T00:58:33.723Z,5.43
2022-12-25T01:01:01.140Z,5.45
2022-12-25T01:03:28.418Z,6.80
2022-12-25T01:06:00.985Z,6.88
2022-12-25T01:08:29.127Z,6.93
2022-12-25T01:10:58.234Z,6.57
2022-12-25T01:13:25.934Z,8.02
2022-12-25T01:15:52.832Z,7.07
2022-12-25T01:18:20.612Z,6.47
2022-12-25T01:20:48.191Z,7.35
2022-12-25T01:23:15.413Z,6.00
2022-12-25T01:25:42.694Z,7.28
2022-12-25T01:28:09.483Z,8.65
2022-12-25T01:30:36.280Z,4.78
2022-12-25T01:33:03.149Z,10.65
2022-12-25T01:35:29.925Z,10.00
2022-12-25T01:37:56.784Z,8.70
2022-12-25T01:40:23.805Z,8.00
2022-12-25T01:42:50.660Z,6.80
2022-12-25T01:45:35.827Z,8.70
2022-12-25T01:48:09.867Z,8.48
2022-12-25T01:50:39.005Z,10.73
2022-12-25T01:53:09.031Z,12.25
2022-12-25T01:55:37.074Z,7.10
2022-12-25T01:58:04.146Z,10.43
2022-12-25T02:00:31.024Z,9.18
2022-12-25T02:02:59.342Z,7.95
2022-12-25T02:05:30.633Z,6.80
2022-12-25T02:08:00.929Z,7.78
2022-12-25T02:10:27.665Z,9.77
2022-12-25T02:12:54.532Z,7.65
2022-12-25T02:15:52.858Z,9.27
2022-12-25T02:18:26.808Z,8.30
2022-12-25T02:21:11.658Z,7.95
2022-12-25T02:24:03.542Z,9.52
2022-12-25T02:26:51.748Z,10.45
2022-12-25T02:29:31.144Z,9.65
2022-12-25T02:32:02.181Z,9.18
2022-12-25T02:34:59.524Z,8.10
2022-12-25T02:37:32.766Z,12.40
2022-12-25T02:40:06.172Z,11.38
2022-12-25T02:42:54.412Z,7.45
2022-12-25T02:45:52.645Z,8.93
2022-12-25T02:48:40.660Z,8.68
2022-12-25T02:51:31.296Z,8.38
2022-12-25T02:54:21.082Z,7.45
2022-12-25T02:57:08.121Z,5.22
2022-12-25T02:59:57.017Z,8.20
2022-12-25T03:02:43.990Z,9.60
2022-12-25T03:05:35.621Z,8.98
2022-12-25T03:08:07.254Z,9.40
2022-12-25T03:10:56.565Z,8.55
2022-12-25T03:13:29.487Z,7.00
2022-12-25T03:16:15.272Z,9.65
2022-12-25T03:18:42.804Z,12.18
2022-12-25T03:21:45.290Z,9.48
2022-12-25T03:24:30.481Z,8.25
2022-12-25T03:26:58.355Z,9.90
2022-12-25T03:30:06.599Z,9.18
2022-12-25T03:32:33.369Z,9.23
2022-12-25T03:35:24.275Z,6.28
2022-12-25T03:38:10.639Z,9.07
2022-12-25T03:41:31.620Z,9.75
2022-12-25T03:44:22.448Z,9.57
2022-12-25T03:47:14.012Z,6.88
2022-12-25T03:50:19.510Z,13.90
2022-12-25T03:53:06.527Z,5.75
2022-12-25T03:55:53.227Z,6.18
2022-12-25T03:58:42.042Z,12.38
2022-12-25T04:01:28.473Z,14.07
2022-12-25T04:04:14.012Z,10.27
2022-12-25T04:07:00.132Z,12.40
2022-12-25T04:09:45.553Z,10.35
2022-12-25T04:12:30.792Z,7.32
2022-12-25T04:15:16.328Z,8.68
2022-12-25T04:18:03.603Z,6.35
2022-12-25T04:20:48.954Z,8.27
2022-12-25T04:23:34.428Z,8.30
2022-12-25T04:26:19.604Z,9.35
2022-12-25T04:29:04.955Z,10.20
2022-12-25T04:31:50.138Z,7.25
2022-12-25T04:34:35.447Z,9.30
2022-12-25T04:37:02.249Z,7.80
2022-12-25T04:39:29.148Z,10.70
2022-12-25T04:41:55.942Z,10.65
2022-12-25T04:44:22.757Z,8.80
2022-12-25T04:46:49.537Z,8.07
2022-12-25T04:49:16.472Z,9.80
2022-12-25T04:51:43.311Z,9.93
2022-12-25T04:54:10.147Z,11.35
2022-12-25T04:56:43.456Z,7.50
2022-12-25T04:59:12.569Z,9.98
2022-12-25T05:01:39.461Z,12.30
2022-12-25T05:04:06.514Z,6.30
2022-12-25T05:06:33.311Z,7.20
2022-12-25T05:09:00.328Z,7.03
2022-12-25T05:11:27.709Z,9.30
2022-12-25T05:13:54.505Z,13.02
2022-12-25T05:16:21.593Z,12.65
2022-12-25T05:18:52.565Z,8.48
2022-12-25T05:21:20.130Z,8.35
2022-12-25T05:23:51.118Z,7.55
2022-12-25T05:26:23.986Z,6.63
2022-12-25T05:28:51.572Z,7.25
2022-12-25T05:31:19.311Z,6.15
2022-12-25T05:33:48.893Z,9.32
2022-12-25T05:36:15.651Z,8.75
2022-12-25T05:38:42.405Z,10.57
2022-12-25T05:41:09.917Z,13.77
2022-12-25T05:43:36.929Z,13.23
2022-12-25T05:46:10.800Z,9.80
2022-12-25T05:48:38.623Z,11.65
2022-12-25T05:51:08.277Z,9.73
2022-12-25T05:53:35.730Z,7.85
2022-12-25T05:56:04.960Z,13.18
2022-12-25T05:58:32.934Z,10.20
2022-12-25T06:00:59.773Z,12.10
2022-12-25T06:03:26.875Z,10.80
2022-12-25T06:05:54.299Z,9.60
2022-12-25T06:08:21.359Z,13.32
2022-12-25T06:10:48.371Z,10.80
2022-12-25T06:13:15.256Z,7.75
2022-12-25T06:15:42.826Z,8.80
2022-12-25T06:18:09.677Z,11.05
2022-12-25T06:20:36.850Z,9.35
2022-12-25T06:23:03.651Z,10.40
2022-12-25T06:25:31.508Z,13.07
2022-12-25T06:27:58.288Z,10.82
2022-12-25T06:30:25.169Z,7.97
2022-12-25T06:32:52.071Z,10.13
2022-12-25T06:35:18.870Z,11.95
2022-12-25T06:37:46.389Z,10.60
2022-12-25T06:40:13.483Z,9.20
2022-12-25T06:42:40.334Z,7.32
2022-12-25T06:45:10.071Z,9.07
2022-12-25T06:47:38.124Z,9.98
2022-12-25T06:50:05.910Z,8.65
2022-12-25T06:52:33.526Z,11.60
2022-12-25T06:55:00.332Z,11.23
2022-12-25T06:57:27.098Z,10.90
2022-12-25T06:59:55.519Z,10.48
2022-12-25T07:02:24.265Z,12.52
2022-12-25T07:04:52.171Z,9.50
2022-12-25T07:07:19.405Z,11.73
2022-12-25T07:09:46.197Z,14.32
2022-12-25T07:12:21.794Z,12.68
2022-12-25T07:14:50.190Z,12.85
2022-12-25T07:17:17.915Z,12.30
2022-12-25T07:19:48.251Z,11.95
2022-12-25T07:22:16.127Z,12.13
2022-12-25T07:24:43.059Z,15.45
2022-12-25T07:27:10.270Z,14.77
2022-12-25T07:29:37.053Z,12.52
2022-12-25T07:32:04.001Z,17.10
2022-12-25T07:34:30.851Z,14.25
2022-12-25T07:36:57.667Z,18.27
2022-12-25T07:39:24.523Z,17.50
2022-12-25T07:41:51.411Z,22.73
2022-12-25T07:44:18.594Z,18.67
2022-12-25T07:46:45.783Z,16.48
2022-12-25T07:49:12.994Z,19.38
2022-12-25T07:51:39.944Z,17.95
2022-12-25T07:54:06.809Z,16.10
2022-12-25T07:56:33.651Z,22.10
2022-12-25T07:59:00.424Z,20.42
2022-12-25T08:01:28.612Z,20.23
2022-12-25T08:04:01.192Z,13.85
2022-12-25T08:06:31.758Z,20.33
2022-12-25T08:09:03.489Z,12.10
2022-12-25T08:11:30.287Z,15.25
2022-12-25T08:13:57.405Z,13.57
2022-12-25T08:16:24.336Z,14.68
2022-12-25T08:18:51.167Z,12.95
2022-12-25T08:21:18.071Z,15.43
2022-12-25T08:23:46.756Z,13.40
2022-12-25T08:26:17.833Z,13.80
2022-12-25T08:28:44.691Z,10.85
2022-12-25T08:31:25.939Z,15.10
2022-12-25T08:33:55.702Z,9.95
2022-12-25T08:36:23.309Z,9.82
2022-12-25T08:38:50.333Z,10.50
2022-12-25T08:41:17.889Z,10.40
2022-12-25T08:43:44.966Z,12.30
2022-12-25T08:46:12.467Z,15.93
2022-12-25T08:48:42.786Z,10.38
2022-12-25T08:51:14.662Z,13.90
2022-12-25T08:53:43.025Z,15.57
2022-12-25T08:56:10.160Z,11.73
2022-12-25T08:58:37.248Z,13.20
2022-12-25T09:01:04.722Z,11.63
2022-12-25T09:03:34.902Z,17.17
2022-12-25T09:06:13.141Z,12.40
2022-12-25T09:08:46.228Z,14.77
2022-12-25T09:11:16.944Z,13.68
2022-12-25T09:13:43.866Z,13.50
2022-12-25T09:16:13.530Z,13.43
2022-12-25T09:18:40.895Z,10.30
2022-12-25T09:21:11.558Z,18.85
2022-12-25T09:23:39.298Z,14.65
2022-12-25T09:26:08.828Z,21.23
2022-12-25T09:28:35.705Z,13.20
2022-12-25T09:31:02.937Z,13.70
2022-12-25T09:33:30.201Z,13.43
2022-12-25T09:36:00.109Z,13.55
2022-12-25T09:38:28.910Z,12.40
2022-12-25T09:41:08.325Z,11.38
2022-12-25T09:43:45.788Z,16.00
2022-12-25T09:46:20.073Z,15.75
2022-12-25T09:49:10.923Z,14.75
2022-12-25T09:51:40.239Z,12.70
2022-12-25T09:54:36.704Z,14.45
2022-12-25T09:57:03.977Z,21.25
2022-12-25T09:59:30.867Z,14.05
2022-12-25T10:02:19.388Z,14.65
2022-12-25T10:05:11.047Z,14.15
2022-12-25T10:08:18.680Z,10.13
2022-12-25T10:11:09.885Z,16.90
2022-12-25T10:13:59.467Z,13.95
2022-12-25T10:16:32.070Z,16.40
2022-12-25T10:19:27.610Z,12.35
2022-12-25T10:22:00.855Z,12.93
2022-12-25T10:26:57.661Z,14.77
2022-12-25T10:29:24.399Z,17.02
2022-12-25T10:31:55.482Z,14.38
2022-12-25T10:34:23.563Z,15.20
2022-12-25T10:36:50.925Z,14.10
2022-12-25T10:39:24.299Z,13.45
2022-12-25T10:42:29.563Z,19.00
2022-12-25T10:44:57.029Z,14.55
2022-12-25T10:47:30.414Z,15.55
2022-12-25T10:52:27.344Z,12.90
2022-12-25T10:54:55.294Z,14.20
2022-12-25T10:57:24.818Z,11.98
2022-12-25T10:59:57.928Z,12.95
2022-12-25T11:02:28.841Z,11.38
2022-12-25T11:05:08.432Z,11.20
2022-12-25T11:07:46.833Z,12.70
2022-12-25T11:10:26.320Z,17.25
2022-12-25T11:12:54.038Z,11.00
2022-12-25T11:15:48.815Z,12.65
2022-12-25T11:18:23.202Z,12.93
2022-12-25T11:20:55.528Z,13.32
2022-12-25T11:23:25.263Z,12.47
2022-12-25T11:25:59.288Z,18.15
2022-12-25T11:28:28.517Z,16.17
2022-12-25T11:31:02.978Z,14.90
2022-12-25T11:33:40.193Z,11.30
2022-12-25T11:36:39.745Z,10.98
2022-12-25T11:39:18.388Z,13.75
2022-12-25T11:41:46.378Z,11.13
2022-12-25T11:44:42.739Z,11.75
2022-12-25T11:47:25.835Z,12.65
2022-12-25T11:50:02.149Z,13.38
2022-12-25T11:52:37.562Z,14.48
2022-12-25T11:55:43.766Z,27.75
2022-12-25T11:58:20.614Z,13.48
2022-12-25T12:00:50.124Z,12.25
2022-12-25T12:03:20.940Z,10.70
2022-12-25T12:05:58.305Z,10.32
2022-12-25T12:08:25.483Z,10.88
2022-12-25T12:11:16.131Z,11.50
2022-12-25T12:13:58.876Z,16.00
2022-12-25T12:16:25.889Z,11.18
2022-12-25T12:18:52.658Z,13.50
2022-12-25T12:21:24.645Z,12.48
2022-12-25T12:24:00.438Z,10.88
2022-12-25T12:26:30.309Z,11.73
2022-12-25T12:29:02.411Z,12.15
2022-12-25T12:31:44.986Z,12.30
2022-12-25T12:34:28.984Z,11.27
2022-12-25T12:37:29.601Z,10.70
2022-12-25T12:40:45.807Z,14.55
2022-12-25T12:43:30.394Z,17.77
2022-12-25T12:46:04.200Z,13.27
2022-12-25T12:48:39.238Z,12.25
2022-12-25T12:51:09.289Z,11.38
2022-12-25T12:53:36.835Z,14.77
2022-12-25T12:56:10.941Z,11.85
2022-12-25T12:58:48.633Z,14.93
2022-12-25T13:01:27.595Z,17.08
2022-12-25T13:04:23.007Z,15.48
2022-12-25T13:06:58.193Z,15.60
2022-12-25T13:09:35.418Z,16.15
2022-12-25T13:12:08.275Z,15.98
2022-12-25T13:14:40.214Z,14.98
2022-12-25T13:17:08.942Z,16.23
2022-12-25T13:19:37.180Z,17.90
2022-12-25T13:22:06.943Z,17.65
2022-12-25T13:24:36.391Z,20.13
2022-12-25T13:27:24.679Z,16.33
2022-12-25T13:29:52.102Z,17.67
2022-12-25T13:32:37.688Z,16.48
2022-12-25T13:35:04.625Z,16.30
2022-12-25T13:37:32.127Z,18.20
2022-12-25T13:40:01.916Z,18.60
2022-12-25T13:42:39.945Z,18.33
2022-12-25T13:45:23.819Z,16.65
2022-12-25T13:47:55.511Z,19.20
2022-12-25T13:50:32.703Z,15.88
2022-12-25T13:53:12.217Z,18.45
2022-12-25T13:55:39.843Z,21.63
2022-12-25T13:58:08.194Z,16.75
2022-12-25T14:00:48.702Z,21.73
2022-12-25T14:03:45.582Z,15.30
2022-12-25T14:06:28.741Z,16.05
2022-12-25T14:08:58.342Z,20.25
2022-12-25T14:11:28.222Z,17.15
2022-12-25T14:13:59.998Z,21.35
2022-12-25T14:16:27.827Z,19.33
2022-12-25T14:19:03.910Z,15.00
2022-12-25T14:21:38.662Z,23.05
2022-12-25T14:24:15.716Z,17.45
2022-12-25T14:26:43.044Z,20.20
2022-12-25T14:29:16.732Z,17.63
2022-12-25T14:31:46.242Z,19.45
2022-12-25T14:34:17.845Z,19.30
2022-12-25T14:36:44.992Z,27.35
2022-12-25T14:39:38.045Z,19.83
2022-12-25T14:42:24.607Z,19.48
2022-12-25T14:45:34.660Z,20.98
2022-12-25T14:48:18.520Z,24.25
2022-12-25T14:51:06.106Z,21.17
2022-12-25T14:53:40.960Z,23.42
2022-12-25T14:56:10.279Z,18.08
2022-12-25T14:58:43.410Z,20.92
2022-12-25T15:01:29.519Z,17.98
2022-12-25T15:04:14.473Z,21.75
2022-12-25T15:06:52.921Z,17.52
2022-12-25T15:09:20.136Z,18.15
2022-12-25T15:11:51.687Z,18.25
2022-12-25T15:14:18.545Z,21.52
2022-12-25T15:16:49.382Z,20.45
2022-12-25T15:19:37.407Z,18.40
2022-12-25T15:22:04.834Z,17.83
2022-12-25T15:24:31.661Z,22.10
2022-12-25T15:27:00.810Z,17.85
2022-12-25T15:30:00.274Z,18.05
2022-12-25T15:32:23.983Z,17.95
2022-12-25T15:34:51.386Z,18.90
2022-12-25T15:37:19.013Z,20.45
2022-12-25T15:39:46.237Z,21.00
2022-12-25T15:42:15.652Z,14.32
2022-12-25T15:44:43.768Z,14.88
2022-12-25T15:47:15.579Z,15.45
2022-12-25T15:49:42.836Z,21.00
2022-12-25T15:52:15.840Z,22.10
2022-12-25T15:54:42.905Z,23.05
2022-12-25T15:57:21.106Z,22.27
2022-12-25T15:59:48.200Z,17.38
2022-12-25T16:02:20.625Z,16.98
2022-12-25T16:04:47.874Z,20.15
2022-12-25T16:07:17.263Z,20.83
2022-12-25T16:09:44.313Z,18.13
2022-12-25T16:12:11.573Z,23.10
2022-12-25T16:14:38.389Z,26.42
2022-12-25T16:17:05.589Z,26.25
2022-12-25T16:19:32.502Z,19.83
2022-12-25T16:21:59.267Z,24.00
2022-12-25T16:24:26.141Z,27.27
2022-12-25T16:26:52.938Z,27.88
2022-12-25T16:29:19.761Z,22.73
2022-12-25T16:31:46.605Z,23.13
2022-12-25T16:34:13.560Z,21.17
2022-12-25T16:36:40.407Z,23.70
2022-12-25T16:39:07.250Z,22.63
2022-12-25T16:41:34.160Z,24.17
2022-12-25T16:44:09.221Z,23.30
2022-12-25T16:46:37.468Z,26.25
2022-12-25T16:49:05.043Z,24.27
2022-12-25T16:51:31.853Z,26.25
2022-12-25T16:54:00.185Z,21.52
2022-12-25T16:56:28.350Z,21.58
2022-12-25T16:58:56.643Z,22.42
2022-12-25T17:01:24.166Z,22.13
2022-12-25T17:03:52.067Z,26.20
2022-12-25T17:06:24.731Z,27.55
2022-12-25T17:08:53.264Z,22.45
2022-12-25T17:11:27.299Z,19.73
2022-12-25T17:13:54.539Z,22.98
2022-12-25T17:16:27.201Z,25.00
2022-12-25T17:19:02.002Z,25.25
2022-12-25T17:21:30.404Z,21.73
2022-12-25T17:24:02.371Z,20.85
2022-12-25T17:26:30.740Z,23.85
2022-12-25T17:28:57.512Z,22.75
2022-12-25T17:31:24.329Z,25.58
2022-12-25T17:33:51.296Z,26.15
2022-12-25T17:36:19.925Z,25.73
2022-12-25T17:38:47.742Z,25.52
2022-12-25T17:41:16.236Z,25.80
2022-12-25T17:43:45.647Z,20.75
2022-12-25T17:46:18.750Z,22.00
2022-12-25T17:48:46.745Z,26.23
2022-12-25T17:51:18.888Z,26.52
2022-12-25T17:53:48.947Z,21.50
2022-12-25T17:56:16.667Z,24.25
2022-12-25T17:58:43.754Z,22.25
2022-12-25T18:01:16.031Z,23.38
2022-12-25T18:03:44.514Z,25.80
2022-12-25T18:06:14.779Z,21.25
2022-12-25T18:08:45.285Z,20.10
2022-12-25T18:11:17.831Z,22.20
2022-12-25T18:13:48.528Z,22.60
2022-12-25T18:16:17.325Z,24.33
2022-12-25T18:18:51.990Z,22.25
2022-12-25T18:21:20.741Z,26.67
2022-12-25T18:23:48.170Z,21.05
2022-12-25T18:26:15.189Z,25.45
2022-12-25T18:28:43.899Z,26.95
2022-12-25T18:31:15.710Z,23.13
2022-12-25T18:33:42.980Z,22.27
2022-12-25T18:36:10.932Z,21.27
2022-12-25T18:38:37.710Z,21.17
2022-12-25T18:41:09.116Z,22.77
2022-12-25T18:43:52.062Z,20.83
2022-12-25T18:46:24.679Z,24.70
2022-12-25T18:48:52.765Z,19.77
2022-12-25T18:51:19.685Z,23.95
2022-12-25T18:53:46.647Z,24.30
2022-12-25T18:56:17.469Z,21.95
2022-12-25T18:58:45.200Z,25.83
2022-12-25T19:01:20.416Z,23.20
2022-12-25T19:03:50.098Z,24.30
2022-12-25T19:06:26.819Z,26.85
2022-12-25T19:08:54.403Z,22.70
2022-12-25T19:11:22.100Z,28.10
2022-12-25T19:13:49.013Z,24.27
2022-12-25T19:16:16.991Z,22.00
2022-12-25T19:18:45.643Z,23.25
2022-12-25T19:21:13.363Z,20.45
2022-12-25T19:23:40.191Z,20.48
2022-12-25T19:26:09.065Z,19.83
2022-12-25T19:28:37.121Z,21.38
2022-12-25T19:31:07.358Z,28.25
2022-12-25T19:33:35.649Z,23.45
2022-12-25T19:36:04.203Z,24.60
2022-12-25T19:38:31.044Z,24.35
2022-12-25T19:41:01.379Z,26.83
2022-12-25T19:43:36.683Z,24.15
2022-12-25T19:46:04.020Z,27.10
2022-12-25T19:48:32.252Z,21.50
2022-12-25T19:50:59.569Z,18.65
2022-12-25T19:53:27.212Z,19.15
2022-12-25T19:55:54.665Z,20.88
2022-12-25T19:58:23.202Z,20.15
2022-12-25T20:01:06.055Z,22.15
2022-12-25T20:03:37.433Z,20.10
2022-12-25T20:06:09.008Z,16.90
2022-12-25T20:08:35.888Z,20.98
2022-12-25T20:11:03.872Z,19.67
2022-12-25T20:13:30.703Z,20.63
2022-12-25T20:16:01.641Z,22.92
2022-12-25T20:18:29.494Z,17.55
2022-12-25T20:21:27.543Z,21.75
2022-12-25T20:23:56.063Z,25.48
2022-12-25T20:26:27.438Z,24.77
2022-12-25T20:28:54.392Z,21.67
2022-12-25T20:31:27.548Z,22.13
2022-12-25T20:33:55.762Z,21.80
2022-12-25T20:36:22.598Z,22.13
2022-12-25T20:38:49.951Z,20.48
2022-12-25T20:41:28.778Z,22.25
2022-12-25T20:43:56.168Z,21.67
2022-12-25T20:46:23.590Z,22.20
2022-12-25T20:48:51.939Z,23.65
2022-12-25T20:51:21.940Z,25.60
2022-12-25T20:53:49.117Z,21.30
2022-12-25T20:56:17.849Z,25.13
2022-12-25T20:58:44.762Z,23.25
2022-12-25T21:01:17.191Z,22.58
2022-12-25T21:03:44.912Z,20.55
2022-12-25T21:06:12.338Z,23.35
2022-12-25T21:08:40.958Z,19.42
2022-12-25T21:11:08.590Z,21.55
2022-12-25T21:13:41.203Z,22.90
2022-12-25T21:16:10.938Z,21.67
2022-12-25T21:18:38.102Z,19.70
2022-12-25T21:21:06.584Z,19.63
2022-12-25T21:23:36.068Z,23.90
2022-12-25T21:26:11.906Z,19.35
2022-12-25T21:28:38.797Z,22.65
2022-12-25T21:31:06.677Z,19.70
2022-12-25T21:33:52.499Z,20.58
2022-12-25T21:36:28.335Z,18.67
2022-12-25T21:39:04.676Z,20.75
2022-12-25T21:41:32.730Z,19.45
2022-12-25T21:44:00.507Z,18.35
2022-12-25T21:46:28.405Z,18.23
2022-12-25T21:48:55.890Z,16.05
2022-12-25T21:51:47.468Z,21.73
2022-12-25T21:54:15.228Z,18.42
2022-12-25T21:56:45.448Z,14.55
2022-12-25T21:59:16.062Z,21.85
2022-12-25T22:01:43.712Z,17.42
2022-12-25T22:04:11.542Z,16.75
2022-12-25T22:06:57.053Z,19.50
2022-12-25T22:09:24.561Z,15.25
2022-12-25T22:12:09.984Z,18.45
2022-12-25T22:14:56.319Z,18.48
2022-12-25T22:17:45.055Z,19.98
2022-12-25T22:20:17.981Z,16.58
2022-12-25T22:22:45.287Z,19.02
2022-12-25T22:25:13.550Z,15.20
2022-12-25T22:27:42.048Z,15.40
2022-12-25T22:30:12.159Z,17.50
2022-12-25T22:32:39.502Z,17.08
2022-12-25T22:35:06.779Z,14.90
2022-12-25T22:37:33.541Z,16.60
2022-12-25T22:40:02.292Z,15.57
2022-12-25T22:42:30.774Z,15.60
2022-12-25T22:44:58.740Z,18.08
2022-12-25T22:47:25.567Z,19.00
2022-12-25T22:49:52.435Z,16.65
2022-12-25T22:52:19.254Z,14.45
2022-12-25T22:54:46.022Z,19.38
2022-12-25T22:57:12.791Z,17.23
2022-12-25T22:59:40.044Z,16.42
2022-12-25T23:02:07.199Z,17.02
2022-12-25T23:04:34.152Z,16.02
2022-12-25T23:07:02.074Z,14.68
2022-12-25T23:09:29.362Z,13.88
2022-12-25T23:11:57.707Z,14.93
2022-12-25T23:14:40.911Z,17.42
2022-12-25T23:17:30.878Z,16.08
2022-12-25T23:20:18.345Z,12.35
2022-12-25T23:23:05.250Z,14.18
2022-12-25T23:25:52.570Z,13.75
2022-12-25T23:28:39.638Z,17.40
2022-12-25T23:31:07.174Z,15.10
2022-12-25T23:33:34.143Z,14.60
2022-12-25T23:36:00.953Z,18.55
2022-12-25T23:38:28.002Z,16.13
2022-12-25T23:40:54.805Z,18.50
2022-12-25T23:43:21.643Z,15.52
2022-12-25T23:45:48.365Z,19.85
2022-12-25T23:48:15.296Z,17.80
2022-12-25T23:50:42.146Z,20.13
2022-12-25T23:53:09.600Z,14.75
2022-12-25T23:55:36.547Z,15.48
2022-12-25T23:58:03.402Z,15.90
